Flight Track Log - Related Links

Times and Time Zones

All times are in EDT time to prevent confusion due to time zone crossing. See the CTL22 flight status page for this flight to view local times or setup timezone preferences in your user account.

Time Position Orientation Groundspeed Altitude Reporting Facility
EDT Latitude Longitude Course Direction KTS MPH feet Rate Location/Type
Tue 08:17:13 PM 42.1553 -85.3769 119° Southeast 141 162 4,200  Level Chicago Center
Tue 08:18:15 PM 42.1400 -85.3253 112° Southeast 145 167 4,900 629 Climbing Chicago Center
Tue 08:19:17 PM 42.1289 -85.2669 104° East 155 178 5,500 532 Climbing Chicago Center
Tue 08:20:00 PM 42.1678 -85.1561 103° East  Level Estimated
Tue 08:20:19 PM 42.1200 -85.2094 102° East 156 180 6,000  Level Chicago Center
Tue 08:21:00 PM 42.1565 -85.0902 103° East  Level Estimated
Tue 08:21:21 PM 42.1083 -85.1494 105° East 162 186 6,500  Level Chicago Center
Tue 08:22:23 PM 42.0958 -85.0769 103° East 164 189 7,000 194 Climbing Chicago Center
Tue 08:23:25 PM 42.0850 -85.0111 102° East 173 199 6,900  Descending Chicago Center
Tue 08:24:27 PM 42.0744 -84.9422 102° East 184 212 7,000 48 Climbing Chicago Center
Tue 08:25:29 PM 42.0653 -84.8736 100° East 185 213 7,000  Level Chicago Center
Tue 08:26:31 PM 42.0631 -84.8028 92° East 189 217 7,000  Level Chicago Center
Tue 08:27:33 PM 42.0617 -84.7308 91° East 191 220 7,000 48 Level Chicago Center
Tue 08:28:35 PM 42.0603 -84.6433 91° East 194 223 7,100  Climbing Chicago Center
Tue 08:29:38 PM 42.0586 -84.5733 92° East 190 219 7,000 -48 Descending Chicago Center
Tue 08:30:40 PM 42.0617 -84.4975 87° East 192 221 7,000 48 Level Chicago Center
Tue 08:31:42 PM 42.0639 -84.4261 88° East 193 222 7,100  Climbing Chicago Center
Tue 08:32:44 PM 42.0642 -84.3539 90° East 193 222 7,000 -48 Descending Chicago Center
Tue 08:33:46 PM 42.0686 -84.2842 85° East 189 217 7,000 -48 Level Chicago Center
Tue 08:34:48 PM 42.0753 -84.2014 84° East 190 219 6,900  Descending Chicago Center
Tue 08:35:10 PM 42.0767 -84.1781 85° East 193 222 7,000 79 Climbing Cleveland Center
Tue 08:36:04 PM 42.0869 -84.1144 78° East 189 217 7,000  Level Cleveland Center
Tue 08:37:00 PM 42.0889 -84.0500 88° East 187 215 7,000  Level Cleveland Center
Tue 08:38:06 PM 42.0764 -83.9822 104° East 177 204 7,000 50 Level Cleveland Center
Tue 08:39:01 PM 42.0614 -83.9256 110° East 176 203 7,100  Climbing Cleveland Center
Tue 08:40:08 PM 42.0425 -83.8519 109° East 177 204 7,000  Descending Cleveland Center
Tue 08:41:03 PM 42.0294 -83.7981 108° East 174 200 7,100  Climbing Cleveland Center
Tue 08:42:16 PM 42.0128 -83.7244 107° East 176 203 7,000 -49 Descending Cleveland Center
Tue 08:43:05 PM 41.9956 -83.6706 113° Southeast 178 205 7,000 55 Level Cleveland Center
Tue 08:44:06 PM 41.9786 -83.6056 109° East 176 203 7,100  Climbing Cleveland Center
Tue 08:45:00 PM 41.9633 -83.5489 110° East 180 207 7,000 -47 Descending Cleveland Center
Tue 08:46:13 PM 41.9422 -83.4753 111° Southeast 184 212 7,000 47 Level Cleveland Center
Tue 08:47:08 PM 41.9250 -83.4158 111° Southeast 185 213 7,100  Climbing Cleveland Center
Tue 08:48:08 PM 41.9078 -83.3483 109° East 188 216 7,000 -52 Descending Cleveland Center
Tue 08:49:03 PM 41.8944 -83.2947 108° East 180 207 7,000  Level Cleveland Center
Tue 08:50:04 PM 41.8753 -83.2269 111° Southeast 183 211 7,000  Level Cleveland Center
Tue 08:51:04 PM 41.8622 -83.1622 105° East 186 214 7,000  Level Cleveland Center
Tue 08:52:11 PM 41.8428 -83.0917 110° East 182 209 7,000  Level Cleveland Center
Tue 08:53:06 PM 41.8275 -83.0353 110° East 179 206 7,000  Level Cleveland Center
Tue 08:54:14 PM 41.8081 -82.9650 110° East 181 208 7,000 43 Level Cleveland Center
Tue 08:55:27 PM 41.7931 -82.8836 104° East 182 209 7,100  Climbing Cleveland Center
Tue 08:56:22 PM 41.7775 -82.8219 109° East 182 209 7,000 -50 Descending Cleveland Center
Tue 08:57:28 PM 41.7603 -82.7517 108° East 180 207 7,000 -189 Level Cleveland Center
Tue 08:58:29 PM 41.7447 -82.6872 108° East 186 214 6,600 -844 Descending Cleveland Center
Tue 08:59:36 PM 41.7275 -82.6003 105° East 223 257 5,200 -893 Descending Cleveland Center
Tue 09:00:30 PM 41.7139 -82.5386 106° East 203 234 4,800 -574 Descending Cleveland Center
Tue 09:01:31 PM 41.6986 -82.4575 104° East 201 231 4,100 -694 Descending Cleveland Center
Tue 09:02:31 PM 41.6831 -82.3875 107° East 203 234 3,400 -574 Descending Cleveland Center
Tue 09:03:26 PM 41.6714 -82.3261 104° East 191 220 3,000 -207 Descending Cleveland Center
Tue 09:04:27 PM 41.6558 -82.2617 108° East 165 190 3,000  Level Cleveland Center
Tue 09:05:27 PM 41.6400 -82.2003 109° East 171 197 3,000 50 Level Cleveland Center
Tue 09:06:28 PM 41.6303 -82.1417 102° East 171 197 3,100 -197 Climbing Cleveland Center
Tue 09:07:29 PM 41.6189 -82.0775 103° East 174 200 2,600 -472 Descending Cleveland Center
Tue 09:08:35 PM 41.6008 -82.0019 108° East 194 223 2,100 -425 Descending Cleveland Center
Tue 09:09:36 PM 41.5850 -81.9350 108° East 188 216 1,700 -220 Descending Cleveland Center
Tue 09:10:24 PM 41.5731 -81.8822 107° East 169 194 1,700 -52 Level Cleveland Center
Tue 09:11:31 PM 41.5531 -81.8206 113° Southeast 165 190 1,600 -49 Descending Cleveland Center
Tue 09:12:26 PM 41.5431 -81.7706 105° East 158 182 1,600 -164 Level Cleveland Center
Tue 09:13:57 PM 41.5314 -81.6900 101° East 131 151 1,200 -264 Descending Cleveland Center

Login

Don't have an account? Register now (free) for customized features, flight alerts, and more!